Terminal Aerodrome Forecast
Issued by NWS

Home | Current Version | Previous Version | Graphics & Text | Print | Product List | Glossary On
Versions: 1 2 3 4 5 6 7 8 9 10 11 12 13 14 15
000
FTUS45 KGGW 241200 AAA
TAFSDY
TAF AMD
KSDY 241227Z 2412/2512 34010KT P6SM -RA OVC013
     FM241500 31011KT 3SM -RA BR OVC005
     FM241800 30015KT 6SM -RA BR OVC008
     FM250200 30015KT P6SM OVC025
      AMD LTD TO CLD VIS AND WIND=

USA.gov is the U.S. government's official web portal to all federal, state and local government web resources and services.